Impacts TAF Board INFO
FOR SITUATIONAL AWARENESS. NOT TO BE USED FOR FLIGHT PLANNING PURPOSES.
IDs:

KTOI - Troy Muni, AL, US

Issued at 2340 UTC 24 Feb 2018
Updated at 0153 UTC 25 Feb 2018
Potential Impact None Slight Moderate High
Time0053Z 25/02Z 25/03Z 25/04Z 25/05Z 25/06Z 25/07Z 25/08Z 25/09Z 25/10Z 25/11Z 25/12Z 25/13Z 25/14Z>>
Type OBS PRVL PRVL PRVL PRVL PRVL PRVL PRVL PRVL PRVL PRVL PRVL PRVL PRVL
VIS 10 >6 >6 >6 6 6 6 6 4 4 4 4 4 4
CIG -- -- -- -- 15 15 15 15 7 7 7 7 7 7
Cover FEW SCT SCT SCT BKN BKN BKN BKN OVC OVC OVC OVC OVC OVC
FltCat VFR VFR VFR VFR MVFR MVFR MVFR MVFR IFR IFR IFR IFR IFR IFR
WX -- -- -- -- BR BR BR BR BR BR BR BR BR BR
WDir 200 180 180 180 190 190 190 190 200 200 200 200 200 200
WSpd 7 11 11 11 7 7 7 7 10 10 10 10 10 10
WGst -- 21 21 21 -- -- -- -- -- -- -- -- -- --

Raw TAF
KTOI 242340Z 2500/2524 18011G21KT P6SM SCT050
  FM250500 19007KT 6SM BR BKN015
  FM250900 20010KT 4SM BR OVC007
  FM251500 20012G24KT 3SM RA OVC010
  FM251700 35010KT P6SM BKN012 OVC040


Raw METAR
KTOI 250053Z AUTO 20007KT 10SM FEW095 22/15 A3008 RMK AO2 SLP182 T02220150
KTOI 242353Z AUTO 18009KT 10SM CLR 23/16 A3006 RMK AO2 SLP176 T02330156 10283 20233 53003
KTOI 242253Z AUTO 19010G17KT 10SM CLR 26/15 A3004 RMK AO2 SLP169 T02560150

METAR Board
Radar Display
Forecast Discussion

FOR SITUATIONAL AWARENESS. NOT TO BE USED FOR FLIGHT PLANNING PURPOSES.